Flight Track Log - Related Links

Times and Time Zones

All times are in EDT time to prevent confusion due to time zone crossing. See the TAM3785 flight status page for this flight to view local times or setup timezone preferences in your user account.

Time Position Orientation Groundspeed Altitude Reporting Facility
EDT Latitude Longitude Course Direction KTS MPH feet Rate Location/Type
Fri 07:14:32 PM -3.7780 -38.5390 210° Southwest 12 14  Level FlightAware ADS-B
Fri 07:15:13 PM -3.7770 -38.5390 360° North 10 12 93 Level FlightAware ADS-B
Fri 07:17:00 PM -3.9334 -38.6559 217° Southwest  Level Estimated
Fri 07:18:00 PM -4.0212 -38.7214 217° Southwest  Level Estimated
Fri 07:18:32 PM -3.7770 -38.5400 217° Southwest 19 22  Level FlightAware ADS-B
Fri 07:19:00 PM -3.7770 -38.5410 270° West 23 26 198 Level FlightAware ADS-B
Fri 07:19:28 PM -3.7760 -38.5420 315° West 28 32 228 Level FlightAware ADS-B
Fri 07:19:59 PM -3.7760 -38.5440 270° West 34 39 269 Level FlightAware ADS-B
Fri 07:20:08 PM -3.7750 -38.5440 360° North 30 35 336 Level FlightAware ADS-B
Fri 07:20:40 PM -3.7740 -38.5440 360° North 32 37 362 Level FlightAware ADS-B
Fri 07:20:48 PM -3.7730 -38.5440 360° North 19 22 500 Level FlightAware ADS-B
Fri 07:21:08 PM -3.7730 -38.5430 90° East 14 16 553 Level FlightAware ADS-B
Fri 07:21:36 PM -3.7760 -38.5350 111° Southeast 130 150 750 Level FlightAware ADS-B
Fri 07:22:04 PM -3.7810 -38.5150 104° East 159 183 700 1,821 Climbing FlightAware ADS-B
Fri 07:22:32 PM -3.7870 -38.4960 108° East 156 180 1,700 2,000 Climbing FlightAware ADS-B
Fri 07:22:52 PM -3.7900 -38.4820 102° East 153 176 2,300 1,650 Climbing FlightAware ADS-B
Fri 07:23:12 PM -3.7820 -38.4710 54° Northeast 164 189 2,800 1,250 Climbing FlightAware ADS-B
Fri 07:23:40 PM -3.7640 -38.4810 331° Northwest 188 216 3,300 947 Climbing FlightAware ADS-B
Fri 07:23:50 PM -3.7620 -38.4890 284° West 199 229 3,400 818 Climbing FlightAware ADS-B
Fri 07:24:24 PM -3.7680 -38.5240 260° West 239 275 3,900 783 Climbing FlightAware ADS-B
Fri 07:24:36 PM -3.7720 -38.5370 253° West 258 297 4,000 1,333 Climbing FlightAware ADS-B
Fri 07:25:00 PM -3.7800 -38.5670 255° West 282 325 4,700 2,357 Climbing FlightAware ADS-B
Fri 07:25:32 PM -3.7920 -38.6070 253° West 281 323 6,200 2,700 Climbing FlightAware ADS-B
Fri 07:26:00 PM -3.8030 -38.6420 253° West 286 329 7,400 2,571 Climbing FlightAware ADS-B
Fri 07:26:28 PM -3.8140 -38.6780 253° West 289 333 8,600 2,357 Climbing FlightAware ADS-B
Fri 07:26:56 PM -3.8250 -38.7150 253° West 297 342 9,600 1,800 Climbing FlightAware ADS-B
Fri 07:27:38 PM -3.8420 -38.7710 253° West 323 372 10,700 1,295 Climbing FlightAware ADS-B
Fri 07:28:24 PM -3.8630 -38.8430 254° West 364 419 11,500 1,465 Climbing FlightAware ADS-B
Fri 07:29:04 PM -3.8830 -38.9070 253° West 370 426 12,800 1,929 Climbing FlightAware ADS-B
Fri 07:29:48 PM -3.9050 -38.9800 253° West 377 434 14,200 1,800 Climbing FlightAware ADS-B
Fri 07:30:24 PM -3.9310 -39.0360 245° Southwest 383 441 15,200 1,500 Climbing FlightAware ADS-B
Fri 07:30:40 PM -3.9540 -39.0540 218° Southwest 388 447 15,500 1,525 Climbing FlightAware ADS-B
Fri 07:31:23 PM -4.0200 -39.0950 212° Southwest 392 451 16,700 1,786 Climbing FlightAware ADS-B
Fri 07:32:04 PM -4.0860 -39.1350 211° Southwest 394 453 18,000 1,553 Climbing FlightAware ADS-B
Fri 07:32:48 PM -4.1540 -39.1780 212° Southwest 407 468 18,900 1,214 Climbing FlightAware ADS-B
Fri 07:33:28 PM -4.2200 -39.2190 212° Southwest 419 482 19,700 1,200 Climbing FlightAware ADS-B
Fri 07:34:08 PM -4.2840 -39.2590 212° Southwest 424 488 20,500 1,277 Climbing FlightAware ADS-B
Fri 07:35:02 PM -4.3770 -39.3170 212° Southwest 428 493 21,700 1,471 Climbing FlightAware ADS-B
Fri 07:35:50 PM -4.4570 -39.3670 212° Southwest 423 487 23,000 1,239 Climbing FlightAware ADS-B
Fri 07:36:34 PM -4.5320 -39.4140 212° Southwest 431 496 23,600 857 Climbing FlightAware ADS-B
Fri 07:37:14 PM -4.6000 -39.4560 212° Southwest 436 502 24,200 900 Climbing FlightAware ADS-B
Fri 07:37:54 PM -4.6690 -39.5000 212° Southwest 440 506 24,800 815 Climbing FlightAware ADS-B
Fri 07:38:35 PM -4.7410 -39.5440 211° Southwest 447 514 25,300 1,159 Climbing FlightAware ADS-B
Fri 07:39:22 PM -4.8240 -39.5960 212° Southwest 438 504 26,500 1,244 Climbing FlightAware ADS-B
Fri 07:39:57 PM -4.8830 -39.6320 211° Southwest 441 507 27,000 1,043 Climbing FlightAware ADS-B
Fri 07:40:54 PM -4.9840 -39.6960 212° Southwest 438 504 28,100 1,176 Climbing FlightAware ADS-B
Fri 07:41:39 PM -5.0590 -39.7430 212° Southwest 436 502 29,000 1,116 Climbing FlightAware ADS-B
Fri 07:42:20 PM -5.1310 -39.7880 212° Southwest 438 504 29,700 706 Climbing FlightAware ADS-B
Fri 07:43:04 PM -5.2080 -39.8360 212° Southwest 440 506 30,000 214 Climbing FlightAware ADS-B
Fri 07:43:44 PM -5.2760 -39.8780 212° Southwest 447 514 30,000  Level FlightAware ADS-B
Fri 07:44:28 PM -5.3550 -39.9280 212° Southwest 462 532 30,000  Level FlightAware ADS-B
Fri 07:45:05 PM -5.4220 -39.9700 212° Southwest 466 536 30,000  Level FlightAware ADS-B
Fri 07:45:53 PM -5.5110 -40.0250 212° Southwest 469 540 30,000  Level FlightAware ADS-B
Fri 07:46:34 PM -5.5870 -40.0720 212° Southwest 465 535 30,000  Level FlightAware ADS-B
Fri 07:47:15 PM -5.6610 -40.1190 212° Southwest 465 535 30,000  Level FlightAware ADS-B
Fri 07:47:57 PM -5.7390 -40.1680 212° Southwest 466 536 30,000  Level FlightAware ADS-B
Fri 07:48:37 PM -5.8140 -40.2150 212° Southwest 469 540 30,000  Level FlightAware ADS-B
Fri 07:49:21 PM -5.8950 -40.2660 212° Southwest 471 542 30,000 70 Level FlightAware ADS-B
Fri 07:50:03 PM -5.9730 -40.3150 212° Southwest 470 541 30,100  Climbing FlightAware ADS-B
Fri 07:50:41 PM -6.0410 -40.3580 212° Southwest 468 539 30,000 -71 Descending FlightAware ADS-B
Fri 07:51:28 PM -6.1270 -40.4120 212° Southwest 467 537 30,000  Level FlightAware ADS-B
Fri 07:52:09 PM -6.2020 -40.4590 212° Southwest 466 536 30,000  Level FlightAware ADS-B
Fri 07:52:53 PM -6.2850 -40.5110 212° Southwest 466 536 30,000  Level FlightAware ADS-B
Fri 07:53:32 PM -6.3560 -40.5550 212° Southwest 467 537 30,000  Level FlightAware ADS-B
Fri 07:54:17 PM -6.4400 -40.6080 212° Southwest 468 539 30,000  Level FlightAware ADS-B
Fri 07:54:57 PM -6.5110 -40.6530 212° Southwest 470 541 30,000  Level FlightAware ADS-B
Fri 07:55:37 PM -6.5860 -40.7000 212° Southwest 470 541 30,000  Level FlightAware ADS-B
Fri 07:56:21 PM -6.6690 -40.7520 212° Southwest 470 541 30,000  Level FlightAware ADS-B
Fri 07:57:05 PM -6.7490 -40.8030 212° Southwest 470 541 30,000  Level FlightAware ADS-B
Fri 07:57:41 PM -6.8160 -40.8440 211° Southwest 471 542 30,000  Level FlightAware ADS-B
Fri 07:58:27 PM -6.9020 -40.8990 212° Southwest 472 543 30,000  Level FlightAware ADS-B
Fri 07:59:07 PM -6.9760 -40.9450 212° Southwest 471 542 30,000  Level FlightAware ADS-B
Fri 07:59:53 PM -7.0610 -40.9990 212° Southwest 471 542 30,000  Level FlightAware ADS-B
Fri 08:00:33 PM -7.1330 -41.0440 212° Southwest 470 541 30,000  Level FlightAware ADS-B
Fri 08:01:09 PM -7.1990 -41.0860 212° Southwest 469 540 30,000  Level FlightAware ADS-B
Fri 08:01:57 PM -7.2900 -41.1430 212° Southwest 468 539 30,000  Level FlightAware ADS-B
Fri 08:02:41 PM -7.3710 -41.1950 212° Southwest 466 536 30,000  Level FlightAware ADS-B
Fri 08:03:19 PM -7.4400 -41.2380 212° Southwest 467 537 30,000  Level FlightAware ADS-B
Fri 08:03:57 PM -7.5070 -41.2810 212° Southwest 467 537 30,000  Level FlightAware ADS-B
Fri 08:04:48 PM -7.6000 -41.3400 212° Southwest 466 536 30,000  Level FlightAware ADS-B
Fri 08:05:35 PM -7.6870 -41.3950 212° Southwest 466 536 30,000  Level FlightAware ADS-B
Fri 08:06:25 PM -7.7780 -41.4560 214° Southwest 465 535 30,000  Level FlightAware ADS-B
Fri 08:07:06 PM -7.8500 -41.5090 216° Southwest 466 536 30,000  Level FlightAware ADS-B
Fri 08:07:49 PM -7.9240 -41.5630 216° Southwest 468 539 30,000  Level FlightAware ADS-B
Fri 08:08:30 PM -7.9990 -41.6180 216° Southwest 468 539 30,000  Level FlightAware ADS-B
Fri 08:09:12 PM -8.0720 -41.6720 216° Southwest 468 539 30,000  Level FlightAware ADS-B
Fri 08:09:56 PM -8.1490 -41.7280 216° Southwest 468 539 30,000  Level FlightAware ADS-B
Fri 08:10:49 PM -8.2420 -41.7960 216° Southwest 466 536 30,000  Level FlightAware ADS-B
Fri 08:11:33 PM -8.3110 -41.8470 216° Southwest 465 535 30,000  Level FlightAware ADS-B
Fri 08:11:56 PM -8.3590 -41.8820 216° Southwest 465 535 30,000  Level FlightAware ADS-B
Fri 08:12:40 PM -8.4360 -41.9390 216° Southwest 463 533 30,000  Level FlightAware ADS-B
Fri 08:13:26 PM -8.5150 -41.9970 216° Southwest 463 533 30,000  Level FlightAware ADS-B
Fri 08:14:02 PM -8.5770 -42.0420 216° Southwest 463 533 30,000  Level FlightAware ADS-B
Fri 08:14:47 PM -8.6550 -42.1000 216° Southwest 464 534 30,000  Level FlightAware ADS-B
Fri 08:15:28 PM -8.7280 -42.1530 216° Southwest 464 534 30,000  Level FlightAware ADS-B
Fri 08:16:12 PM -8.8050 -42.2100 216° Southwest 464 534 30,000  Level FlightAware ADS-B
Fri 08:16:52 PM -8.8730 -42.2600 216° Southwest 463 533 30,000  Level FlightAware ADS-B
Fri 08:17:34 PM -8.9460 -42.3140 216° Southwest 464 534 30,000  Level FlightAware ADS-B
Fri 08:18:18 PM -9.0220 -42.3700 216° Southwest 465 535 30,000  Level FlightAware ADS-B
Fri 08:19:02 PM -9.0990 -42.4260 216° Southwest 465 535 30,000  Level FlightAware ADS-B
Fri 08:19:42 PM -9.1680 -42.4780 217° Southwest 465 535 30,000  Level FlightAware ADS-B
Fri 08:20:20 PM -9.2340 -42.5270 216° Southwest 465 535 30,000  Level FlightAware ADS-B
Fri 08:21:08 PM -9.3190 -42.5900 216° Southwest 466 536 30,000  Level FlightAware ADS-B
Fri 08:21:48 PM -9.3880 -42.6410 216° Southwest 467 537 30,000  Level FlightAware ADS-B
Fri 08:22:29 PM -9.4590 -42.6940 216° Southwest 467 537 30,000  Level FlightAware ADS-B
Fri 08:23:13 PM -9.5360 -42.7510 216° Southwest 465 535 30,000  Level FlightAware ADS-B
Fri 08:23:55 PM -9.6100 -42.8060 216° Southwest 465 535 30,000  Level FlightAware ADS-B
Fri 08:24:51 PM -9.7040 -42.8750 216° Southwest 464 534 30,000  Level FlightAware ADS-B
Fri 08:25:33 PM -9.7800 -42.9320 216° Southwest 464 534 30,000  Level FlightAware ADS-B
Fri 08:26:31 PM -9.8690 -42.9990 217° Southwest 465 535 30,000  Level FlightAware ADS-B
Fri 08:27:09 PM -9.9470 -43.0560 216° Southwest 467 537 30,000  Level FlightAware ADS-B
Fri 08:27:47 PM -10.0120 -43.1050 217° Southwest 468 539 30,000  Level FlightAware ADS-B
Fri 08:28:31 PM -10.0900 -43.1640 217° Southwest 468 539 30,000  Level FlightAware ADS-B
Fri 08:29:15 PM -10.1670 -43.2210 216° Southwest 467 537 30,000  Level FlightAware ADS-B
Fri 08:29:55 PM -10.2380 -43.2740 216° Southwest 467 537 30,000  Level FlightAware ADS-B
Fri 08:30:50 PM -10.3320 -43.3440 216° Southwest 466 536 30,000  Level FlightAware ADS-B
Fri 08:31:36 PM -10.4110 -43.4030 216° Southwest 466 536 30,000  Level FlightAware ADS-B
Fri 08:32:17 PM -10.4830 -43.4570 216° Southwest 465 535 30,000  Level FlightAware ADS-B
Fri 08:32:57 PM -10.5550 -43.5110 216° Southwest 464 534 30,000  Level FlightAware ADS-B
Fri 08:33:42 PM -10.6230 -43.5620 216° Southwest 465 535 30,000  Level FlightAware ADS-B
Fri 08:34:16 PM -10.6740 -43.5990 215° Southwest 465 535 30,000  Level FlightAware ADS-B
Fri 08:35:05 PM -10.7460 -43.6520 216° Southwest 465 535 30,000  Level FlightAware ADS-B
Fri 08:35:40 PM -10.7980 -43.6910 216° Southwest 465 535 30,000  Level FlightAware ADS-B
Fri 08:36:28 PM -10.8690 -43.7430 216° Southwest 465 535 30,000 -136 Level FlightAware ADS-B
Fri 08:39:00 PM -11.0936 -43.9259 219° Southwest  Level Estimated
Fri 08:40:00 PM -11.1822 -43.9982 219° Southwest  Level Estimated
Fri 08:41:00 PM -11.2708 -44.0705 219° Southwest  Level Estimated
Fri 08:42:00 PM -11.3594 -44.1429 219° Southwest  Level Estimated
Fri 08:43:00 PM -11.4480 -44.2153 219° Southwest  Level Estimated
Fri 08:44:00 PM -11.5365 -44.2878 219° Southwest  Level Estimated
Fri 08:45:00 PM -11.6250 -44.3603 219° Southwest  Level Estimated
Fri 08:46:00 PM -11.7135 -44.4328 219° Southwest  Level Estimated
Fri 08:47:00 PM -11.8020 -44.5054 219° Southwest  Level Estimated
Fri 08:48:00 PM -11.8905 -44.5781 219° Southwest  Level Estimated
Fri 08:49:00 PM -11.9790 -44.6508 219° Southwest  Level Estimated
Fri 08:50:00 PM -12.0674 -44.7235 219° Southwest  Level Estimated
Fri 08:51:00 PM -12.1558 -44.7963 219° Southwest  Level Estimated
Fri 08:52:00 PM -12.2442 -44.8691 219° Southwest  Level Estimated
Fri 08:53:00 PM -12.3326 -44.9420 219° Southwest  Level Estimated
Fri 08:54:00 PM -12.4210 -45.0150 219° Southwest  Level Estimated
Fri 08:55:00 PM -12.5093 -45.0880 219° Southwest  Level Estimated
Fri 08:56:00 PM -12.5976 -45.1610 219° Southwest  Level Estimated
Fri 08:57:00 PM -12.6859 -45.2341 219° Southwest  Level Estimated
Fri 08:58:00 PM -12.7742 -45.3072 219° Southwest  Level Estimated
Fri 08:59:00 PM -12.8625 -45.3804 219° Southwest  Level Estimated
Fri 09:00:00 PM -12.9507 -45.4537 219° Southwest  Level Estimated
Fri 09:01:00 PM -13.0389 -45.5270 219° Southwest  Level Estimated
Fri 09:02:00 PM -13.1271 -45.6003 219° Southwest  Level Estimated
Fri 09:03:00 PM -13.2153 -45.6737 219° Southwest  Level Estimated
Fri 09:04:00 PM -13.3035 -45.7472 219° Southwest  Level Estimated
Fri 09:05:00 PM -13.3916 -45.8206 219° Southwest  Level Estimated
Fri 09:06:00 PM -13.4797 -45.8942 219° Southwest  Level Estimated
Fri 09:07:00 PM -13.5678 -45.9678 219° Southwest  Level Estimated
Fri 09:08:00 PM -13.6559 -46.0415 219° Southwest  Level Estimated
Fri 09:09:00 PM -13.7439 -46.1152 219° Southwest  Level Estimated
Fri 09:10:00 PM -13.8320 -46.1890 219° Southwest  Level Estimated
Fri 09:11:00 PM -13.9200 -46.2628 219° Southwest  Level Estimated
Fri 09:12:00 PM -14.0080 -46.3367 219° Southwest  Level Estimated
Fri 09:13:00 PM -14.0959 -46.4106 219° Southwest  Level Estimated
Fri 09:14:00 PM -14.1839 -46.4846 219° Southwest  Level Estimated
Fri 09:15:00 PM -14.2718 -46.5587 219° Southwest  Level Estimated
Fri 09:16:00 PM -14.3597 -46.6328 219° Southwest  Level Estimated
Fri 09:17:00 PM -14.4476 -46.7070 219° Southwest  Level Estimated
Fri 09:18:00 PM -14.5354 -46.7812 219° Southwest  Level Estimated
Fri 09:19:00 PM -14.6232 -46.8555 219° Southwest  Level Estimated
Fri 09:19:52 PM -15.2050 -47.2220 219° Southwest 393 452 24,000  Level FlightAware ADS-B
Fri 09:20:00 PM -14.7110 -46.9299 219° Southwest  Level Estimated
Fri 09:20:50 PM -15.2690 -47.3010 230° Southwest 392 451 22,800  Level FlightAware ADS-B
Fri 09:21:44 PM -15.3360 -47.3830 230° Southwest 387 445 20,300 -2,545 Descending FlightAware ADS-B
Fri 09:22:29 PM -15.3860 -47.4460 231° Southwest 375 432 18,600 -2,047 Descending FlightAware ADS-B
Fri 09:23:09 PM -15.4310 -47.5020 230° Southwest 369 425 17,400 -1,906 Descending FlightAware ADS-B
Fri 09:23:54 PM -15.4810 -47.5640 230° Southwest 366 421 15,900 -1,835 Descending FlightAware ADS-B
Fri 09:24:34 PM -15.5220 -47.6170 231° Southwest 362 417 14,800 -1,725 Descending FlightAware ADS-B
Fri 09:25:14 PM -15.5660 -47.6720 230° Southwest 357 411 13,600 -1,271 Descending FlightAware ADS-B
Fri 09:25:59 PM -15.6110 -47.7280 230° Southwest 324 373 13,000 -706 Descending FlightAware ADS-B
Fri 09:26:39 PM -15.6480 -47.7740 230° Southwest 296 341 12,600 -600 Descending FlightAware ADS-B
Fri 09:27:19 PM -15.6780 -47.8170 234° Southwest 271 312 12,200 -675 Descending FlightAware ADS-B
Fri 09:27:59 PM -15.6910 -47.8650 254° West 253 291 11,700 -988 Descending FlightAware ADS-B
Fri 09:28:44 PM -15.7040 -47.9180 256° West 248 285 10,800 -1,129 Descending FlightAware ADS-B
Fri 09:29:24 PM -15.7150 -47.9620 255° West 236 272 10,100 -1,200 Descending FlightAware ADS-B
Fri 09:29:54 PM -15.7230 -47.9950 256° West 228 262 9,400 -890 Descending FlightAware ADS-B
Fri 09:32:00 PM -15.8626 -47.9127 150° Southeast  Level Estimated
Fri 09:33:00 PM -15.8626 -47.9127 128° Southeast  Level Estimated
Fri 09:34:00 PM -15.8626 -47.9127 128° Southeast  Level Estimated
Fri 09:34:41 PM -15.8320 -48.1610 128° Southeast 179 206 5,400  Level FlightAware ADS-B
Fri 09:35:28 PM -15.8490 -48.1140 111° Southeast 170 196 5,300 -78 Descending FlightAware ADS-B
Fri 09:35:58 PM -15.8580 -48.0920 113° Southeast 168 193 5,300 -150 Level FlightAware ADS-B
Fri 09:36:08 PM -15.8610 -48.0840 111° Southeast 167 192 5,200 -150 Descending FlightAware ADS-B
Fri 09:36:38 PM -15.8680 -48.0630 109° East 146 168 5,200 -136 Level FlightAware ADS-B
Fri 09:36:52 PM -15.8700 -48.0540 103° East 143 165 5,100 -136 Descending FlightAware ADS-B
Fri 09:37:22 PM -15.8700 -48.0330 90° East 142 163 5,100 -207 Level FlightAware ADS-B
Fri 09:37:50 PM -15.8690 -48.0140 87° East 144 166 4,900 -577 Descending FlightAware ADS-B
Fri 09:38:14 PM -15.8680 -47.9970 87° East 144 166 4,600 -808 Descending FlightAware ADS-B
Fri 09:38:42 PM -15.8670 -47.9780 87° East 143 165 4,200 -724 Descending FlightAware ADS-B
Fri 09:39:12 PM -15.8660 -47.9580 87° East 143 165 3,900 -655 Descending FlightAware ADS-B
Fri 09:39:37 PM -15.8640 -47.9400 83° East 148 170 3,600 -627 Descending FlightAware ADS-B
Fri 09:40:19 PM -15.8630 -47.9150 88° East 152 175 3,200 -571 Descending FlightAware ADS-B
Fri 09:42:14 PM -15.8640 -47.9120 109° East 21 24 -1,670 Descending FlightAware ADS-B
Fri 09:42:40 PM -15.8650 -47.9150 251° West 22 25  Level FlightAware ADS-B
Fri 09:43:12 PM -15.8650 -47.9170 270° West 27 31  Level FlightAware ADS-B
Fri 09:43:38 PM -15.8650 -47.9200 270° West 27 31  Level FlightAware ADS-B
Fri 09:44:24 PM -15.8680 -47.9190 162° South 29 33  Level FlightAware ADS-B
Fri 09:44:36 PM -15.8690 -47.9190 180° South 24 28  Level FlightAware ADS-B
Fri 09:45:12 PM -15.8690 -47.9200 270° West 12 14  Level FlightAware ADS-B
Fri 09:47:00 PM -15.8626 -47.9127 48° Northeast  Level Estimated
Fri 09:48:00 PM -15.8626 -47.9127 128° Southeast  Level Estimated
Fri 09:49:00 PM -15.8626 -47.9127 128° Southeast  Level Estimated
Fri 09:50:00 PM -15.8626 -47.9127 128° Southeast  Level Estimated
Fri 09:51:00 PM -15.8626 -47.9127 128° Southeast  Level Estimated

Login

Don't have an account? Register now (free) for customized features, flight alerts, and more!